6TX2 weather

Circle M Ranch Airport
Frelsburg, Texas, United States

Public forecast

Using degrees Fahrenheit for public forecast. Weather courtesy of forecast.io.

Closest aviation weather report (METAR) to Circle M Ranch Airport

Closest report is Robert R Wells Jr Airport, 11.6 nm (21.6 km) S. Retrieved UTC (0 seconds ago):

Closest aviation forecast (TAF) to Circle M Ranch Airport

Closest forecast is Easterwood Field, 45.9 nm (85.0 km) N. Retrieved 2020/04/08 18:42 UTC (0 seconds ago):

TAF KCLL 081740Z 0818/0918 20007KT P6SM VCSH BKN015 BKN030 FM082200 VRB05KT P6SM VCTS SCT050CB BKN250 TEMPO 0822/0901 VRB15G35KT 3SM +TSRA OVC030CB FM090300 18006KT P6SM SCT030 BKN250 FM091000 23004KT 6SM BR BKN015 FM091200 VRB04KT 3SM BR SCT009 BKN015 FM091500 28006KT P6SM SCT015 BKN025